sensor_id;sensor_type;location;lat;lon;timestamp;pressure;altitude;pressure_sealevel;temperature;humidity
64078;BME280;51039;49.696;10.808;2023-02-28T00:02:19;99322.88;;;-3.50;83.00
64078;BME280;51039;49.696;10.808;2023-02-28T00:04:44;99319.53;;;-3.52;83.19
64078;BME280;51039;49.696;10.808;2023-02-28T00:07:09;99314.56;;;-3.56;82.92
64078;BME280;51039;49.696;10.808;2023-02-28T00:09:35;99317.38;;;-3.60;83.13
64078;BME280;51039;49.696;10.808;2023-02-28T00:12:00;99313.31;;;-3.64;83.07
64078;BME280;51039;49.696;10.808;2023-02-28T00:14:35;99307.22;;;-3.63;83.38
64078;BME280;51039;49.696;10.808;2023-02-28T00:17:01;99309.72;;;-3.62;83.48
64078;BME280;51039;49.696;10.808;2023-02-28T00:19:26;99302.97;;;-3.64;83.29
64078;BME280;51039;49.696;10.808;2023-02-28T00:21:51;99308.41;;;-3.69;83.51
64078;BME280;51039;49.696;10.808;2023-02-28T00:24:17;99308.50;;;-3.70;83.29
64078;BME280;51039;49.696;10.808;2023-02-28T00:26:42;99312.94;;;-3.72;83.36
64078;BME280;51039;49.696;10.808;2023-02-28T00:29:07;99306.63;;;-3.83;83.55
64078;BME280;51039;49.696;10.808;2023-02-28T00:31:32;99311.16;;;-3.86;83.61
64078;BME280;51039;49.696;10.808;2023-02-28T00:33:58;99303.38;;;-3.86;83.67
64078;BME280;51039;49.696;10.808;2023-02-28T00:36:23;99303.38;;;-3.86;83.84
64078;BME280;51039;49.696;10.808;2023-02-28T00:38:48;99299.59;;;-3.81;83.80
64078;BME280;51039;49.696;10.808;2023-02-28T00:41:14;99305.53;;;-3.79;83.79
64078;BME280;51039;49.696;10.808;2023-02-28T00:43:40;99306.28;;;-3.77;83.55
64078;BME280;51039;49.696;10.808;2023-02-28T00:46:05;99302.19;;;-3.81;83.48
64078;BME280;51039;49.696;10.808;2023-02-28T00:48:31;99301.69;;;-3.87;83.62
64078;BME280;51039;49.696;10.808;2023-02-28T00:50:57;99300.97;;;-3.89;83.85
64078;BME280;51039;49.696;10.808;2023-02-28T00:53:22;99301.97;;;-3.92;83.70
64078;BME280;51039;49.696;10.808;2023-02-28T00:55:48;99302.06;;;-3.93;83.94
64078;BME280;51039;49.696;10.808;2023-02-28T00:58:14;99302.41;;;-4.00;84.01
64078;BME280;51039;49.696;10.808;2023-02-28T01:00:39;99304.69;;;-4.09;84.19
64078;BME280;51039;49.696;10.808;2023-02-28T01:03:05;99295.75;;;-4.04;84.27
64078;BME280;51039;49.696;10.808;2023-02-28T01:05:30;99302.34;;;-3.98;84.48
64078;BME280;51039;49.696;10.808;2023-02-28T01:07:55;99290.88;;;-3.94;84.41
64078;BME280;51039;49.696;10.808;2023-02-28T01:10:20;99294.28;;;-3.93;84.25
64078;BME280;51039;49.696;10.808;2023-02-28T01:12:46;99291.78;;;-3.95;84.39
64078;BME280;51039;49.696;10.808;2023-02-28T01:15:11;99289.63;;;-4.03;84.89
64078;BME280;51039;49.696;10.808;2023-02-28T01:17:36;99283.72;;;-4.05;84.88
64078;BME280;51039;49.696;10.808;2023-02-28T01:20:02;99290.66;;;-4.05;85.35
64078;BME280;51039;49.696;10.808;2023-02-28T01:22:28;99290.66;;;-4.05;85.41
64078;BME280;51039;49.696;10.808;2023-02-28T01:24:53;99281.41;;;-4.09;85.72
64078;BME280;51039;49.696;10.808;2023-02-28T01:27:19;99284.06;;;-4.11;85.85
64078;BME280;51039;49.696;10.808;2023-02-28T01:29:44;99277.50;;;-4.17;85.77
64078;BME280;51039;49.696;10.808;2023-02-28T01:32:09;99276.31;;;-4.11;85.78
64078;BME280;51039;49.696;10.808;2023-02-28T01:34:35;99279.72;;;-4.10;85.79
64078;BME280;51039;49.696;10.808;2023-02-28T01:37:00;99278.91;;;-4.11;85.59
64078;BME280;51039;49.696;10.808;2023-02-28T01:39:26;99270.13;;;-4.08;85.75
64078;BME280;51039;49.696;10.808;2023-02-28T01:41:51;99272.91;;;-4.11;85.69
64078;BME280;51039;49.696;10.808;2023-02-28T01:47:19;99265.56;;;-4.19;86.07
64078;BME280;51039;49.696;10.808;2023-02-28T01:49:45;99274.97;;;-4.18;86.10
64078;BME280;51039;49.696;10.808;2023-02-28T01:52:11;99272.41;;;-4.18;85.79
64078;BME280;51039;49.696;10.808;2023-02-28T01:54:43;99273.34;;;-4.19;85.86
64078;BME280;51039;49.696;10.808;2023-02-28T01:57:13;99270.63;;;-4.18;86.12
64078;BME280;51039;49.696;10.808;2023-02-28T01:59:43;99265.56;;;-4.19;85.89
64078;BME280;51039;49.696;10.808;2023-02-28T02:02:14;99259.47;;;-4.18;86.07
64078;BME280;51039;49.696;10.808;2023-02-28T02:04:46;99262.25;;;-4.21;86.16
64078;BME280;51039;49.696;10.808;2023-02-28T02:07:36;99261.81;;;-4.13;86.01
64078;BME280;51039;49.696;10.808;2023-02-28T02:10:06;99259.09;;;-4.12;86.19
64078;BME280;51039;49.696;10.808;2023-02-28T02:15:09;99249.03;;;-4.17;86.13
64078;BME280;51039;49.696;10.808;2023-02-28T02:17:46;99251.03;;;-4.22;86.33
64078;BME280;51039;49.696;10.808;2023-02-28T02:32:14;99236.63;;;-4.26;86.60
64078;BME280;51039;49.696;10.808;2023-02-28T02:37:27;99244.38;;;-4.26;86.75
64078;BME280;51039;49.696;10.808;2023-02-28T02:40:03;99234.84;;;-4.25;86.69
64078;BME280;51039;49.696;10.808;2023-02-28T02:42:47;99235.50;;;-4.22;86.62
64078;BME280;51039;49.696;10.808;2023-02-28T02:45:25;99231.28;;;-4.23;86.72
64078;BME280;51039;49.696;10.808;2023-02-28T02:48:08;99233.94;;;-4.24;86.90
64078;BME280;51039;49.696;10.808;2023-02-28T02:50:38;99231.53;;;-4.27;87.22
64078;BME280;51039;49.696;10.808;2023-02-28T02:53:09;99235.94;;;-4.29;87.12
64078;BME280;51039;49.696;10.808;2023-02-28T02:55:38;99230.97;;;-4.32;87.07
64078;BME280;51039;49.696;10.808;2023-02-28T02:58:10;99237.72;;;-4.30;87.11
64078;BME280;51039;49.696;10.808;2023-02-28T03:00:39;99237.63;;;-4.28;87.18
64078;BME280;51039;49.696;10.808;2023-02-28T03:03:09;99237.78;;;-4.31;87.07
64078;BME280;51039;49.696;10.808;2023-02-28T03:05:46;99236.97;;;-4.32;87.25
64078;BME280;51039;49.696;10.808;2023-02-28T03:08:13;99236.06;;;-4.31;86.90
64078;BME280;51039;49.696;10.808;2023-02-28T03:10:49;99239.63;;;-4.34;87.28
64078;BME280;51039;49.696;10.808;2023-02-28T03:18:42;99236.97;;;-4.32;87.44
64078;BME280;51039;49.696;10.808;2023-02-28T03:21:36;99243.81;;;-4.31;87.40
64078;BME280;51039;49.696;10.808;2023-02-28T03:24:09;99239.47;;;-4.30;87.35
64078;BME280;51039;49.696;10.808;2023-02-28T03:26:44;99252.13;;;-4.26;86.92
64078;BME280;51039;49.696;10.808;2023-02-28T03:29:28;99248.88;;;-4.29;87.26
64078;BME280;51039;49.696;10.808;2023-02-28T03:32:08;99244.47;;;-4.27;87.00
64078;BME280;51039;49.696;10.808;2023-02-28T03:34:48;99247.78;;;-4.25;86.99
64078;BME280;51039;49.696;10.808;2023-02-28T03:37:22;99254.63;;;-4.24;86.72
64078;BME280;51039;49.696;10.808;2023-02-28T03:39:50;99260.72;;;-4.25;86.63
64078;BME280;51039;49.696;10.808;2023-02-28T03:42:23;99261.66;;;-4.26;87.03
64078;BME280;51039;49.696;10.808;2023-02-28T03:47:29;99255.81;;;-4.30;86.77
64078;BME280;51039;49.696;10.808;2023-02-28T03:50:03;99250.56;;;-4.28;87.17
64078;BME280;51039;49.696;10.808;2023-02-28T03:52:34;99253.59;;;-4.36;86.89
64078;BME280;51039;49.696;10.808;2023-02-28T03:55:03;99256.84;;;-4.32;87.05
64078;BME280;51039;49.696;10.808;2023-02-28T03:57:41;99261.06;;;-4.31;87.10
64078;BME280;51039;49.696;10.808;2023-02-28T04:00:20;99260.25;;;-4.32;87.09
64078;BME280;51039;49.696;10.808;2023-02-28T04:02:50;99252.22;;;-4.27;87.12
64078;BME280;51039;49.696;10.808;2023-02-28T04:05:17;99261.81;;;-4.29;86.92
64078;BME280;51039;49.696;10.808;2023-02-28T04:07:44;99261.81;;;-4.29;86.86
64078;BME280;51039;49.696;10.808;2023-02-28T04:10:09;99257.38;;;-4.27;86.87
64078;BME280;51039;49.696;10.808;2023-02-28T04:12:36;99255.81;;;-4.30;86.96
64078;BME280;51039;49.696;10.808;2023-02-28T04:15:01;99263.50;;;-4.28;87.00
64078;BME280;51039;49.696;10.808;2023-02-28T04:17:27;99263.31;;;-4.25;87.00
64078;BME280;51039;49.696;10.808;2023-02-28T04:19:52;99260.84;;;-4.27;87.10
64078;BME280;51039;49.696;10.808;2023-02-28T04:22:19;99258.13;;;-4.25;86.97
64078;BME280;51039;49.696;10.808;2023-02-28T04:24:44;99259.66;;;-4.21;86.94
64078;BME280;51039;49.696;10.808;2023-02-28T04:27:09;99257.44;;;-4.13;86.55
64078;BME280;51039;49.696;10.808;2023-02-28T04:29:35;99261.88;;;-4.15;86.73
64078;BME280;51039;49.696;10.808;2023-02-28T04:32:00;99252.28;;;-4.13;86.37
64078;BME280;51039;49.696;10.808;2023-02-28T04:34:27;99255.78;;;-4.14;86.61
64078;BME280;51039;49.696;10.808;2023-02-28T04:36:53;99255.53;;;-4.09;86.42
64078;BME280;51039;49.696;10.808;2023-02-28T04:39:20;99257.09;;;-4.07;86.24
64078;BME280;51039;49.696;10.808;2023-02-28T04:41:46;99263.75;;;-4.03;86.35
64078;BME280;51039;49.696;10.808;2023-02-28T04:44:12;99266.56;;;-3.91;85.84
64078;BME280;51039;49.696;10.808;2023-02-28T04:46:37;99256.72;;;-3.85;85.61
64078;BME280;51039;49.696;10.808;2023-02-28T04:49:03;99257.53;;;-3.84;85.40
64078;BME280;51039;49.696;10.808;2023-02-28T04:51:28;99265.47;;;-3.87;85.77
64078;BME280;51039;49.696;10.808;2023-02-28T04:53:53;99257.53;;;-3.84;85.45
64078;BME280;51039;49.696;10.808;2023-02-28T04:56:19;99252.81;;;-3.78;85.16
64078;BME280;51039;49.696;10.808;2023-02-28T04:58:45;99260.88;;;-3.82;85.38
64078;BME280;51039;49.696;10.808;2023-02-28T05:03:45;99260.19;;;-3.86;85.46
64078;BME280;51039;49.696;10.808;2023-02-28T05:06:11;99260.88;;;-3.82;85.45
64078;BME280;51039;49.696;10.808;2023-02-28T05:08:37;99268.53;;;-3.81;85.64
64078;BME280;51039;49.696;10.808;2023-02-28T05:11:03;99269.38;;;-3.80;85.33
64078;BME280;51039;49.696;10.808;2023-02-28T05:13:30;99261.78;;;-3.83;85.56
64078;BME280;51039;49.696;10.808;2023-02-28T05:15:56;99262.50;;;-3.81;85.33
64078;BME280;51039;49.696;10.808;2023-02-28T05:18:21;99267.59;;;-3.80;85.53
64078;BME280;51039;49.696;10.808;2023-02-28T05:20:46;99264.03;;;-3.77;85.51
64078;BME280;51039;49.696;10.808;2023-02-28T05:23:12;99265.75;;;-3.78;85.26
64078;BME280;51039;49.696;10.808;2023-02-28T05:25:38;99258.06;;;-3.79;85.51
64078;BME280;51039;49.696;10.808;2023-02-28T05:28:04;99266.78;;;-3.80;85.28
64078;BME280;51039;49.696;10.808;2023-02-28T05:30:29;99265.22;;;-3.83;85.56
64078;BME280;51039;49.696;10.808;2023-02-28T05:32:56;99274.53;;;-3.80;85.75
64078;BME280;51039;49.696;10.808;2023-02-28T05:35:22;99266.69;;;-3.79;85.35
64078;BME280;51039;49.696;10.808;2023-02-28T05:37:48;99278.97;;;-3.82;85.55
64078;BME280;51039;49.696;10.808;2023-02-28T05:40:14;99281.72;;;-3.85;86.00
64078;BME280;51039;49.696;10.808;2023-02-28T05:42:40;99282.69;;;-3.86;85.88
64078;BME280;51039;49.696;10.808;2023-02-28T05:45:06;99287.84;;;-3.86;85.89
64078;BME280;51039;49.696;10.808;2023-02-28T05:47:33;99278.16;;;-3.83;86.15
64078;BME280;51039;49.696;10.808;2023-02-28T05:49:58;99285.06;;;-3.83;85.83
64078;BME280;51039;49.696;10.808;2023-02-28T05:52:23;99284.06;;;-3.81;85.73
64078;BME280;51039;49.696;10.808;2023-02-28T05:54:49;99283.97;;;-3.79;85.57
64078;BME280;51039;49.696;10.808;2023-02-28T05:57:14;99283.97;;;-3.79;85.51
64078;BME280;51039;49.696;10.808;2023-02-28T05:59:40;99284.53;;;-3.74;85.67
64078;BME280;51039;49.696;10.808;2023-02-28T06:02:12;99278.25;;;-3.70;85.41
64078;BME280;51039;49.696;10.808;2023-02-28T06:04:39;99291.69;;;-3.63;85.06
64078;BME280;51039;49.696;10.808;2023-02-28T06:07:05;99289.09;;;-3.63;84.90
64078;BME280;51039;49.696;10.808;2023-02-28T06:09:31;99294.94;;;-3.60;84.74
64078;BME280;51039;49.696;10.808;2023-02-28T06:11:57;99287.34;;;-3.63;85.03
64078;BME280;51039;49.696;10.808;2023-02-28T06:14:23;99297.53;;;-3.60;85.23
64078;BME280;51039;49.696;10.808;2023-02-28T06:16:49;99294.81;;;-3.58;85.00
64078;BME280;51039;49.696;10.808;2023-02-28T06:19:14;99298.94;;;-3.54;84.88
64078;BME280;51039;49.696;10.808;2023-02-28T06:21:40;99298.81;;;-3.52;84.65
64078;BME280;51039;49.696;10.808;2023-02-28T06:24:05;99296.88;;;-3.49;84.74
64078;BME280;51039;49.696;10.808;2023-02-28T06:26:31;99305.31;;;-3.45;84.58
64078;BME280;51039;49.696;10.808;2023-02-28T06:28:57;99299.59;;;-3.36;84.20
64078;BME280;51039;49.696;10.808;2023-02-28T06:31:22;99301.81;;;-3.30;83.53
64078;BME280;51039;49.696;10.808;2023-02-28T06:33:48;99300.53;;;-3.23;83.57
64078;BME280;51039;49.696;10.808;2023-02-28T06:36:14;99301.72;;;-3.14;83.35
64078;BME280;51039;49.696;10.808;2023-02-28T06:38:40;99307.47;;;-3.09;83.27
64078;BME280;51039;49.696;10.808;2023-02-28T06:41:06;99305.22;;;-3.01;82.79
64078;BME280;51039;49.696;10.808;2023-02-28T06:43:34;99310.81;;;-2.92;82.67
64078;BME280;51039;49.696;10.808;2023-02-28T06:46:05;99305.16;;;-2.85;82.19
64078;BME280;51039;49.696;10.808;2023-02-28T06:48:31;99315.78;;;-2.75;81.49
64078;BME280;51039;49.696;10.808;2023-02-28T06:51:07;99318.16;;;-2.72;81.19
64078;BME280;51039;49.696;10.808;2023-02-28T06:53:35;99320.94;;;-2.61;80.71
64078;BME280;51039;49.696;10.808;2023-02-28T06:56:08;99319.72;;;-2.55;80.71
64078;BME280;51039;49.696;10.808;2023-02-28T06:58:37;99322.75;;;-2.48;80.00
64078;BME280;51039;49.696;10.808;2023-02-28T07:01:04;99315.50;;;-2.43;79.62
64078;BME280;51039;49.696;10.808;2023-02-28T07:03:30;99320.03;;;-2.32;79.33
64078;BME280;51039;49.696;10.808;2023-02-28T07:05:56;99317.78;;;-2.24;79.20
64078;BME280;51039;49.696;10.808;2023-02-28T07:08:22;99324.53;;;-2.22;78.51
64078;BME280;51039;49.696;10.808;2023-02-28T07:10:51;99327.69;;;-2.17;78.37
64078;BME280;51039;49.696;10.808;2023-02-28T07:13:21;99323.41;;;-1.90;79.03
64078;BME280;51039;49.696;10.808;2023-02-28T07:16:20;99334.25;;;-1.71;79.14
64078;BME280;51039;49.696;10.808;2023-02-28T07:18:38;99327.19;;;-1.69;77.88
64078;BME280;51039;49.696;10.808;2023-02-28T07:21:04;99326.59;;;-1.60;76.98
64078;BME280;51039;49.696;10.808;2023-02-28T07:23:32;99329.94;;;-1.58;76.17
64078;BME280;51039;49.696;10.808;2023-02-28T07:25:57;99329.69;;;-1.67;76.23
64078;BME280;51039;49.696;10.808;2023-02-28T07:28:22;99332.84;;;-1.49;76.72
64078;BME280;51039;49.696;10.808;2023-02-28T07:30:48;99351.00;;;-1.62;75.18
64078;BME280;51039;49.696;10.808;2023-02-28T07:33:13;99335.97;;;-1.44;75.37
64078;BME280;51039;49.696;10.808;2023-02-28T07:35:39;99330.03;;;-1.46;75.32
64078;BME280;51039;49.696;10.808;2023-02-28T07:38:04;99331.78;;;-1.47;75.38
64078;BME280;51039;49.696;10.808;2023-02-28T07:40:32;99335.03;;;-1.30;74.78
64078;BME280;51039;49.696;10.808;2023-02-28T07:42:58;99334.63;;;-1.24;74.36
64078;BME280;51039;49.696;10.808;2023-02-28T07:45:25;99343.13;;;-0.84;73.08
64078;BME280;51039;49.696;10.808;2023-02-28T07:47:50;99334.16;;;-0.54;71.88
64078;BME280;51039;49.696;10.808;2023-02-28T07:50:15;99333.66;;;0.13;69.13
64078;BME280;51039;49.696;10.808;2023-02-28T07:52:41;99330.91;;;0.39;67.56
64078;BME280;51039;49.696;10.808;2023-02-28T07:55:07;99331.94;;;0.25;67.62
64078;BME280;51039;49.696;10.808;2023-02-28T07:57:34;99336.50;;;0.46;67.43
64078;BME280;51039;49.696;10.808;2023-02-28T07:59:59;99327.16;;;0.54;66.22
64078;BME280;51039;49.696;10.808;2023-02-28T08:02:25;99337.03;;;0.62;66.32
64078;BME280;51039;49.696;10.808;2023-02-28T08:04:50;99324.84;;;0.74;65.60
64078;BME280;51039;49.696;10.808;2023-02-28T08:07:16;99336.47;;;1.04;64.97
64078;BME280;51039;49.696;10.808;2023-02-28T08:09:43;99338.88;;;1.18;64.10
64078;BME280;51039;49.696;10.808;2023-02-28T08:12:10;99334.94;;;1.35;64.75
64078;BME280;51039;49.696;10.808;2023-02-28T08:14:35;99324.50;;;1.12;64.22
64078;BME280;51039;49.696;10.808;2023-02-28T08:17:01;99325.34;;;1.13;64.00
64078;BME280;51039;49.696;10.808;2023-02-28T08:19:27;99324.59;;;0.77;65.33
64078;BME280;51039;49.696;10.808;2023-02-28T08:21:53;99329.72;;;1.01;64.55
64078;BME280;51039;49.696;10.808;2023-02-28T08:24:19;99332.47;;;1.33;63.73
64078;BME280;51039;49.696;10.808;2023-02-28T08:26:44;99325.44;;;1.11;63.53
64078;BME280;51039;49.696;10.808;2023-02-28T08:29:10;99331.84;;;1.41;63.46
64078;BME280;51039;49.696;10.808;2023-02-28T08:31:35;99336.97;;;1.43;61.92
64078;BME280;51039;49.696;10.808;2023-02-28T08:34:10;99332.28;;;1.69;61.86
64078;BME280;51039;49.696;10.808;2023-02-28T08:36:37;99323.41;;;1.60;61.19
64078;BME280;51039;49.696;10.808;2023-02-28T08:39:02;99330.53;;;2.02;59.83
64078;BME280;51039;49.696;10.808;2023-02-28T08:41:28;99329.19;;;2.40;59.58
64078;BME280;51039;49.696;10.808;2023-02-28T08:43:53;99326.66;;;2.17;60.04
64078;BME280;51039;49.696;10.808;2023-02-28T08:46:19;99325.94;;;2.68;58.50
64078;BME280;51039;49.696;10.808;2023-02-28T08:48:44;99327.50;;;2.39;58.53
64078;BME280;51039;49.696;10.808;2023-02-28T08:51:11;99320.72;;;2.68;57.55
64078;BME280;51039;49.696;10.808;2023-02-28T08:53:38;99324.91;;;2.60;57.23
64078;BME280;51039;49.696;10.808;2023-02-28T08:56:06;99330.94;;;2.71;57.36
64078;BME280;51039;49.696;10.808;2023-02-28T08:58:34;99325.34;;;2.23;58.82
64078;BME280;51039;49.696;10.808;2023-02-28T09:01:00;99326.00;;;2.36;57.69
64078;BME280;51039;49.696;10.808;2023-02-28T09:03:25;99322.59;;;1.92;57.79
64078;BME280;51039;49.696;10.808;2023-02-28T09:05:59;99322.09;;;2.30;57.73
64078;BME280;51039;49.696;10.808;2023-02-28T09:08:25;99322.28;;;2.39;56.24
64078;BME280;51039;49.696;10.808;2023-02-28T09:10:53;99331.03;;;2.49;56.52
64078;BME280;51039;49.696;10.808;2023-02-28T09:13:20;99313.94;;;2.66;56.07
64078;BME280;51039;49.696;10.808;2023-02-28T09:15:46;99332.34;;;3.06;54.91
64078;BME280;51039;49.696;10.808;2023-02-28T09:18:11;99309.94;;;2.92;54.65
64078;BME280;51039;49.696;10.808;2023-02-28T09:20:37;99317.25;;;2.89;54.35
64078;BME280;51039;49.696;10.808;2023-02-28T09:23:06;99325.25;;;3.28;53.40
64078;BME280;51039;49.696;10.808;2023-02-28T09:25:33;99323.91;;;2.72;55.23
64078;BME280;51039;49.696;10.808;2023-02-28T09:27:58;99321.19;;;3.04;55.05
64078;BME280;51039;49.696;10.808;2023-02-28T09:30:24;99342.16;;;2.83;55.19
64078;BME280;51039;49.696;10.808;2023-02-28T09:32:49;99327.47;;;2.50;55.47
64078;BME280;51039;49.696;10.808;2023-02-28T09:35:18;99319.38;;;3.36;54.08
64078;BME280;51039;49.696;10.808;2023-02-28T09:37:47;99314.34;;;3.23;54.07
64078;BME280;51039;49.696;10.808;2023-02-28T09:40:13;99322.91;;;3.25;54.06
64078;BME280;51039;49.696;10.808;2023-02-28T09:42:42;99326.88;;;2.67;55.02
64078;BME280;51039;49.696;10.808;2023-02-28T09:45:22;99308.84;;;3.26;53.97
64078;BME280;51039;49.696;10.808;2023-02-28T09:47:52;99326.66;;;3.01;53.86
64078;BME280;51039;49.696;10.808;2023-02-28T09:50:35;99322.66;;;2.13;56.25
64078;BME280;51039;49.696;10.808;2023-02-28T09:56:15;99331.38;;;3.07;54.90
64078;BME280;51039;49.696;10.808;2023-02-28T09:58:49;99320.47;;;3.93;52.35
64078;BME280;51039;49.696;10.808;2023-02-28T10:01:21;99337.63;;;3.57;52.21
64078;BME280;51039;49.696;10.808;2023-02-28T10:06:34;99336.69;;;3.67;50.83
64078;BME280;51039;49.696;10.808;2023-02-28T10:09:11;99337.88;;;3.53;51.64
64078;BME280;51039;49.696;10.808;2023-02-28T10:11:40;99333.38;;;3.25;51.83
64078;BME280;51039;49.696;10.808;2023-02-28T10:16:47;99336.72;;;3.06;52.45
64078;BME280;51039;49.696;10.808;2023-02-28T10:19:29;99333.25;;;3.26;51.88
64078;BME280;51039;49.696;10.808;2023-02-28T10:22:01;99344.41;;;3.28;52.11
64078;BME280;51039;49.696;10.808;2023-02-28T10:24:51;99326.13;;;4.18;49.72
64078;BME280;51039;49.696;10.808;2023-02-28T10:27:18;99335.09;;;3.45;51.56
64078;BME280;51039;49.696;10.808;2023-02-28T10:29:51;99331.09;;;4.11;50.30
64078;BME280;51039;49.696;10.808;2023-02-28T10:32:31;99320.16;;;3.26;51.35
64078;BME280;51039;49.696;10.808;2023-02-28T10:34:59;99321.69;;;3.79;50.65
64078;BME280;51039;49.696;10.808;2023-02-28T10:37:32;99319.22;;;4.07;49.45
64078;BME280;51039;49.696;10.808;2023-02-28T10:40:03;99322.31;;;3.62;49.64
64078;BME280;51039;49.696;10.808;2023-02-28T10:42:30;99318.06;;;3.70;49.65
64078;BME280;51039;49.696;10.808;2023-02-28T10:45:06;99326.28;;;4.06;49.20
64078;BME280;51039;49.696;10.808;2023-02-28T10:47:39;99306.38;;;4.43;48.86
64078;BME280;51039;49.696;10.808;2023-02-28T10:50:26;99314.50;;;4.59;48.47
64078;BME280;51039;49.696;10.808;2023-02-28T10:52:53;99305.31;;;4.83;47.34
64078;BME280;51039;49.696;10.808;2023-02-28T10:55:22;99304.63;;;4.81;47.43
64078;BME280;51039;49.696;10.808;2023-02-28T10:57:53;99314.09;;;4.64;47.73
64078;BME280;51039;49.696;10.808;2023-02-28T11:02:46;99308.81;;;4.54;47.69
64078;BME280;51039;49.696;10.808;2023-02-28T11:10:56;99316.19;;;4.02;49.55
64078;BME280;51039;49.696;10.808;2023-02-28T11:13:28;99310.81;;;4.13;49.39
64078;BME280;51039;49.696;10.808;2023-02-28T11:15:59;99318.22;;;3.69;49.99
64078;BME280;51039;49.696;10.808;2023-02-28T11:18:29;99310.34;;;3.79;50.40
64078;BME280;51039;49.696;10.808;2023-02-28T11:20:55;99312.56;;;3.73;50.17
64078;BME280;51039;49.696;10.808;2023-02-28T11:23:24;99301.53;;;3.70;50.72
64078;BME280;51039;49.696;10.808;2023-02-28T11:25:53;99311.16;;;3.60;50.38
64078;BME280;51039;49.696;10.808;2023-02-28T11:36:11;99298.38;;;4.05;49.05
64078;BME280;51039;49.696;10.808;2023-02-28T11:38:39;99298.94;;;3.80;49.69
64078;BME280;51039;49.696;10.808;2023-02-28T11:41:08;99312.31;;;4.06;49.25
64078;BME280;51039;49.696;10.808;2023-02-28T11:46:50;99306.78;;;4.28;48.74
64078;BME280;51039;49.696;10.808;2023-02-28T11:49:37;99300.19;;;4.24;49.05
64078;BME280;51039;49.696;10.808;2023-02-28T11:57:56;99282.66;;;3.86;49.34
64078;BME280;51039;49.696;10.808;2023-02-28T12:06:27;99281.28;;;4.01;50.41
64078;BME280;51039;49.696;10.808;2023-02-28T12:18:26;99274.91;;;4.04;49.79
64078;BME280;51039;49.696;10.808;2023-02-28T12:21:08;99282.22;;;4.00;49.87
64078;BME280;51039;49.696;10.808;2023-02-28T12:26:41;99273.41;;;3.91;49.60
64078;BME280;51039;49.696;10.808;2023-02-28T12:29:10;99260.03;;;3.95;49.75
64078;BME280;51039;49.696;10.808;2023-02-28T12:31:52;99267.47;;;4.09;49.47
64078;BME280;51039;49.696;10.808;2023-02-28T12:34:22;99268.16;;;4.01;49.53
64078;BME280;51039;49.696;10.808;2023-02-28T12:36:53;99258.25;;;3.95;50.12
64078;BME280;51039;49.696;10.808;2023-02-28T12:39:25;99259.59;;;4.09;49.44
64078;BME280;51039;49.696;10.808;2023-02-28T12:42:01;99239.34;;;3.91;50.07
64078;BME280;51039;49.696;10.808;2023-02-28T12:44:34;99252.44;;;3.91;49.71
64078;BME280;51039;49.696;10.808;2023-02-28T12:47:05;99256.00;;;4.00;49.89
64078;BME280;51039;49.696;10.808;2023-02-28T12:49:38;99257.00;;;3.99;49.26
64078;BME280;51039;49.696;10.808;2023-02-28T12:52:16;99249.00;;;4.01;50.13
64078;BME280;51039;49.696;10.808;2023-02-28T12:54:53;99252.97;;;4.24;49.63
64078;BME280;51039;49.696;10.808;2023-02-28T13:00:10;99248.16;;;4.00;49.50
64078;BME280;51039;49.696;10.808;2023-02-28T13:02:46;99249.53;;;4.24;49.39
64078;BME280;51039;49.696;10.808;2023-02-28T13:11:31;99254.22;;;4.20;49.94
64078;BME280;51039;49.696;10.808;2023-02-28T13:14:03;99255.75;;;4.13;49.49
64078;BME280;51039;49.696;10.808;2023-02-28T13:16:54;99256.84;;;4.30;50.27
64078;BME280;51039;49.696;10.808;2023-02-28T13:22:36;99253.38;;;4.29;49.60
64078;BME280;51039;49.696;10.808;2023-02-28T13:27:46;99244.66;;;4.29;49.47
64078;BME280;51039;49.696;10.808;2023-02-28T13:38:35;99245.25;;;4.23;50.47
64078;BME280;51039;49.696;10.808;2023-02-28T13:41:40;99236.41;;;4.24;50.96
64078;BME280;51039;49.696;10.808;2023-02-28T13:44:16;99242.31;;;4.45;49.88
64078;BME280;51039;49.696;10.808;2023-02-28T13:51:46;99240.81;;;4.23;49.27
64078;BME280;51039;49.696;10.808;2023-02-28T13:54:31;99233.91;;;4.32;49.66
64078;BME280;51039;49.696;10.808;2023-02-28T13:57:13;99241.34;;;4.37;50.07
64078;BME280;51039;49.696;10.808;2023-02-28T14:05:29;99225.91;;;4.33;49.13
64078;BME280;51039;49.696;10.808;2023-02-28T14:07:58;99225.78;;;4.16;49.54
64078;BME280;51039;49.696;10.808;2023-02-28T14:10:30;99222.59;;;4.31;49.78
64078;BME280;51039;49.696;10.808;2023-02-28T14:16:02;99232.53;;;4.28;49.50
64078;BME280;51039;49.696;10.808;2023-02-28T14:18:31;99230.63;;;4.10;49.93
64078;BME280;51039;49.696;10.808;2023-02-28T14:32:23;99233.94;;;4.22;49.71
64078;BME280;51039;49.696;10.808;2023-02-28T14:34:53;99226.19;;;4.21;49.89
64078;BME280;51039;49.696;10.808;2023-02-28T14:37:39;99220.00;;;4.12;50.10
64078;BME280;51039;49.696;10.808;2023-02-28T14:40:21;99223.16;;;4.25;50.43
64078;BME280;51039;49.696;10.808;2023-02-28T14:42:59;99227.59;;;4.15;50.27
64078;BME280;51039;49.696;10.808;2023-02-28T14:45:27;99222.91;;;4.09;50.58
64078;BME280;51039;49.696;10.808;2023-02-28T14:47:55;99222.78;;;4.10;50.33
64078;BME280;51039;49.696;10.808;2023-02-28T14:50:23;99214.78;;;4.12;50.04
64078;BME280;51039;49.696;10.808;2023-02-28T14:52:52;99214.06;;;4.20;50.48
64078;BME280;51039;49.696;10.808;2023-02-28T14:55:20;99210.47;;;4.21;50.18
64078;BME280;51039;49.696;10.808;2023-02-28T14:57:51;99219.16;;;4.21;50.49
64078;BME280;51039;49.696;10.808;2023-02-28T15:00:23;99216.00;;;4.08;50.28
64078;BME280;51039;49.696;10.808;2023-02-28T15:02:54;99206.50;;;4.07;50.66
64078;BME280;51039;49.696;10.808;2023-02-28T15:08:01;99208.84;;;4.10;50.64
64078;BME280;51039;49.696;10.808;2023-02-28T15:10:27;99213.94;;;4.02;50.81
64078;BME280;51039;49.696;10.808;2023-02-28T15:13:04;99209.94;;;3.98;51.07
64078;BME280;51039;49.696;10.808;2023-02-28T15:21:20;99213.25;;;4.00;50.76
64078;BME280;51039;49.696;10.808;2023-02-28T15:23:50;99218.50;;;4.00;51.10
64078;BME280;51039;49.696;10.808;2023-02-28T15:26:41;99221.53;;;3.95;51.02